sensor_id;sensor_type;location;lat;lon;timestamp;P1;durP1;ratioP1;P2;durP2;ratioP2
21036;SDS011;10677;50.942;4.028;2023-03-23T00:02:25;7.18;;;3.88;;
21036;SDS011;10677;50.942;4.028;2023-03-23T00:04:55;6.45;;;4.03;;
21036;SDS011;10677;50.942;4.028;2023-03-23T00:07:21;6.80;;;4.03;;
21036;SDS011;10677;50.942;4.028;2023-03-23T00:09:50;6.00;;;3.85;;
21036;SDS011;10677;50.942;4.028;2023-03-23T00:12:26;8.07;;;4.25;;
21036;SDS011;10677;50.942;4.028;2023-03-23T00:15:05;8.23;;;4.55;;
21036;SDS011;10677;50.942;4.028;2023-03-23T00:17:40;7.43;;;4.28;;
21036;SDS011;10677;50.942;4.028;2023-03-23T00:20:09;5.07;;;3.55;;
21036;SDS011;10677;50.942;4.028;2023-03-23T00:22:37;6.35;;;3.60;;
21036;SDS011;10677;50.942;4.028;2023-03-23T00:25:04;7.25;;;4.13;;
21036;SDS011;10677;50.942;4.028;2023-03-23T00:27:30;5.50;;;3.63;;
21036;SDS011;10677;50.942;4.028;2023-03-23T00:29:56;5.85;;;3.85;;
21036;SDS011;10677;50.942;4.028;2023-03-23T00:32:23;6.63;;;4.00;;
21036;SDS011;10677;50.942;4.028;2023-03-23T00:34:55;7.22;;;3.42;;
21036;SDS011;10677;50.942;4.028;2023-03-23T00:37:23;7.45;;;4.00;;
21036;SDS011;10677;50.942;4.028;2023-03-23T00:39:49;6.80;;;3.40;;
21036;SDS011;10677;50.942;4.028;2023-03-23T00:42:16;7.57;;;3.63;;
21036;SDS011;10677;50.942;4.028;2023-03-23T00:44:43;5.72;;;3.13;;
21036;SDS011;10677;50.942;4.028;2023-03-23T00:47:09;8.25;;;3.25;;
21036;SDS011;10677;50.942;4.028;2023-03-23T00:49:36;6.38;;;3.05;;
21036;SDS011;10677;50.942;4.028;2023-03-23T00:52:02;6.32;;;3.10;;
21036;SDS011;10677;50.942;4.028;2023-03-23T00:54:30;7.30;;;3.78;;
21036;SDS011;10677;50.942;4.028;2023-03-23T00:56:55;5.30;;;3.45;;
21036;SDS011;10677;50.942;4.028;2023-03-23T00:59:21;6.63;;;3.25;;
21036;SDS011;10677;50.942;4.028;2023-03-23T01:01:48;6.00;;;2.60;;
21036;SDS011;10677;50.942;4.028;2023-03-23T01:04:15;7.47;;;3.10;;
21036;SDS011;10677;50.942;4.028;2023-03-23T01:06:42;5.30;;;2.88;;
21036;SDS011;10677;50.942;4.028;2023-03-23T01:09:10;6.00;;;2.85;;
21036;SDS011;10677;50.942;4.028;2023-03-23T01:11:40;6.07;;;3.20;;
21036;SDS011;10677;50.942;4.028;2023-03-23T01:14:07;5.68;;;2.95;;
21036;SDS011;10677;50.942;4.028;2023-03-23T01:16:33;6.45;;;3.03;;
21036;SDS011;10677;50.942;4.028;2023-03-23T01:18:58;5.82;;;2.75;;
21036;SDS011;10677;50.942;4.028;2023-03-23T01:21:24;5.22;;;2.95;;
21036;SDS011;10677;50.942;4.028;2023-03-23T01:23:51;5.95;;;3.20;;
21036;SDS011;10677;50.942;4.028;2023-03-23T01:26:18;5.70;;;2.88;;
21036;SDS011;10677;50.942;4.028;2023-03-23T01:28:47;4.47;;;2.80;;
21036;SDS011;10677;50.942;4.028;2023-03-23T01:31:15;5.25;;;3.22;;
21036;SDS011;10677;50.942;4.028;2023-03-23T01:33:42;6.60;;;3.67;;
21036;SDS011;10677;50.942;4.028;2023-03-23T01:36:12;6.03;;;2.80;;
21036;SDS011;10677;50.942;4.028;2023-03-23T01:38:43;4.93;;;2.97;;
21036;SDS011;10677;50.942;4.028;2023-03-23T01:41:10;5.40;;;2.55;;
21036;SDS011;10677;50.942;4.028;2023-03-23T01:43:53;7.97;;;2.40;;
21036;SDS011;10677;50.942;4.028;2023-03-23T01:46:33;4.93;;;2.40;;
21036;SDS011;10677;50.942;4.028;2023-03-23T01:49:05;3.58;;;2.47;;
21036;SDS011;10677;50.942;4.028;2023-03-23T01:51:39;4.35;;;2.10;;
21036;SDS011;10677;50.942;4.028;2023-03-23T01:54:12;4.13;;;2.58;;
21036;SDS011;10677;50.942;4.028;2023-03-23T01:56:48;5.57;;;2.40;;
21036;SDS011;10677;50.942;4.028;2023-03-23T01:59:19;4.07;;;2.35;;
21036;SDS011;10677;50.942;4.028;2023-03-23T02:01:45;6.00;;;2.42;;
21036;SDS011;10677;50.942;4.028;2023-03-23T02:04:12;3.83;;;2.22;;
21036;SDS011;10677;50.942;4.028;2023-03-23T02:06:41;5.30;;;1.92;;
21036;SDS011;10677;50.942;4.028;2023-03-23T02:09:09;4.72;;;2.10;;
21036;SDS011;10677;50.942;4.028;2023-03-23T02:11:38;5.10;;;1.88;;
21036;SDS011;10677;50.942;4.028;2023-03-23T02:14:04;6.18;;;1.83;;
21036;SDS011;10677;50.942;4.028;2023-03-23T02:16:43;5.53;;;1.60;;
21036;SDS011;10677;50.942;4.028;2023-03-23T02:24:50;6.45;;;1.73;;
21036;SDS011;10677;50.942;4.028;2023-03-23T02:27:26;6.40;;;1.88;;
21036;SDS011;10677;50.942;4.028;2023-03-23T02:35:50;5.63;;;1.30;;
21036;SDS011;10677;50.942;4.028;2023-03-23T02:38:38;4.13;;;1.55;;
21036;SDS011;10677;50.942;4.028;2023-03-23T02:41:10;5.25;;;1.63;;
21036;SDS011;10677;50.942;4.028;2023-03-23T02:43:39;4.70;;;1.63;;
21036;SDS011;10677;50.942;4.028;2023-03-23T02:46:07;5.00;;;1.65;;
21036;SDS011;10677;50.942;4.028;2023-03-23T02:48:35;5.05;;;1.40;;
21036;SDS011;10677;50.942;4.028;2023-03-23T02:51:03;7.80;;;1.67;;
21036;SDS011;10677;50.942;4.028;2023-03-23T02:53:31;4.95;;;1.60;;
21036;SDS011;10677;50.942;4.028;2023-03-23T02:56:00;4.40;;;1.45;;
21036;SDS011;10677;50.942;4.028;2023-03-23T02:58:29;4.80;;;1.63;;
21036;SDS011;10677;50.942;4.028;2023-03-23T03:00:55;3.58;;;1.45;;
21036;SDS011;10677;50.942;4.028;2023-03-23T03:03:21;5.82;;;1.40;;
21036;SDS011;10677;50.942;4.028;2023-03-23T03:08:40;5.53;;;1.38;;
21036;SDS011;10677;50.942;4.028;2023-03-23T03:11:13;7.72;;;1.77;;
21036;SDS011;10677;50.942;4.028;2023-03-23T03:13:50;4.90;;;1.33;;
21036;SDS011;10677;50.942;4.028;2023-03-23T03:16:29;4.57;;;1.70;;
21036;SDS011;10677;50.942;4.028;2023-03-23T03:19:07;4.53;;;1.40;;
21036;SDS011;10677;50.942;4.028;2023-03-23T03:21:41;4.07;;;1.67;;
21036;SDS011;10677;50.942;4.028;2023-03-23T03:24:09;6.78;;;1.83;;
21036;SDS011;10677;50.942;4.028;2023-03-23T03:26:40;4.68;;;1.20;;
21036;SDS011;10677;50.942;4.028;2023-03-23T03:29:10;5.10;;;1.50;;
21036;SDS011;10677;50.942;4.028;2023-03-23T03:31:37;4.70;;;1.30;;
21036;SDS011;10677;50.942;4.028;2023-03-23T03:34:05;3.95;;;1.42;;
21036;SDS011;10677;50.942;4.028;2023-03-23T03:36:33;3.97;;;1.30;;
21036;SDS011;10677;50.942;4.028;2023-03-23T03:39:01;6.53;;;1.33;;
21036;SDS011;10677;50.942;4.028;2023-03-23T03:41:30;5.65;;;1.50;;
21036;SDS011;10677;50.942;4.028;2023-03-23T03:43:56;6.30;;;1.35;;
21036;SDS011;10677;50.942;4.028;2023-03-23T03:46:21;6.03;;;1.40;;
21036;SDS011;10677;50.942;4.028;2023-03-23T03:48:51;3.30;;;1.15;;
21036;SDS011;10677;50.942;4.028;2023-03-23T03:51:18;4.40;;;1.50;;
21036;SDS011;10677;50.942;4.028;2023-03-23T03:53:43;4.35;;;1.33;;
21036;SDS011;10677;50.942;4.028;2023-03-23T03:56:09;6.05;;;1.33;;
21036;SDS011;10677;50.942;4.028;2023-03-23T03:58:36;4.53;;;1.40;;
21036;SDS011;10677;50.942;4.028;2023-03-23T04:01:02;5.47;;;1.48;;
21036;SDS011;10677;50.942;4.028;2023-03-23T04:03:28;6.28;;;1.60;;
21036;SDS011;10677;50.942;4.028;2023-03-23T04:05:54;5.13;;;1.42;;
21036;SDS011;10677;50.942;4.028;2023-03-23T04:08:23;6.63;;;1.67;;
21036;SDS011;10677;50.942;4.028;2023-03-23T04:10:49;6.85;;;1.85;;
21036;SDS011;10677;50.942;4.028;2023-03-23T04:13:16;9.82;;;1.88;;
21036;SDS011;10677;50.942;4.028;2023-03-23T04:15:43;9.63;;;1.77;;
21036;SDS011;10677;50.942;4.028;2023-03-23T04:18:09;10.27;;;1.92;;
21036;SDS011;10677;50.942;4.028;2023-03-23T04:20:34;7.13;;;1.50;;
21036;SDS011;10677;50.942;4.028;2023-03-23T04:23:02;6.72;;;1.80;;
21036;SDS011;10677;50.942;4.028;2023-03-23T04:25:28;6.95;;;1.58;;
21036;SDS011;10677;50.942;4.028;2023-03-23T04:27:58;6.78;;;1.85;;
21036;SDS011;10677;50.942;4.028;2023-03-23T04:30:26;8.82;;;1.75;;
21036;SDS011;10677;50.942;4.028;2023-03-23T04:32:52;7.72;;;1.80;;
21036;SDS011;10677;50.942;4.028;2023-03-23T04:35:22;5.15;;;1.35;;
21036;SDS011;10677;50.942;4.028;2023-03-23T04:37:52;8.38;;;1.90;;
21036;SDS011;10677;50.942;4.028;2023-03-23T04:40:19;11.00;;;1.30;;
21036;SDS011;10677;50.942;4.028;2023-03-23T04:42:46;7.35;;;1.40;;
21036;SDS011;10677;50.942;4.028;2023-03-23T04:45:13;7.95;;;1.42;;
21036;SDS011;10677;50.942;4.028;2023-03-23T04:47:40;8.07;;;1.42;;
21036;SDS011;10677;50.942;4.028;2023-03-23T04:50:11;12.25;;;1.98;;
21036;SDS011;10677;50.942;4.028;2023-03-23T04:52:38;6.60;;;1.58;;
21036;SDS011;10677;50.942;4.028;2023-03-23T04:55:08;6.85;;;1.10;;
21036;SDS011;10677;50.942;4.028;2023-03-23T04:57:34;6.75;;;1.50;;
21036;SDS011;10677;50.942;4.028;2023-03-23T05:00:00;6.28;;;1.50;;
21036;SDS011;10677;50.942;4.028;2023-03-23T05:02:33;7.53;;;1.58;;
21036;SDS011;10677;50.942;4.028;2023-03-23T05:05:00;9.32;;;1.52;;
21036;SDS011;10677;50.942;4.028;2023-03-23T05:07:26;10.18;;;1.75;;
21036;SDS011;10677;50.942;4.028;2023-03-23T05:09:52;9.73;;;1.90;;
21036;SDS011;10677;50.942;4.028;2023-03-23T05:12:18;7.80;;;1.75;;
21036;SDS011;10677;50.942;4.028;2023-03-23T05:14:43;5.60;;;1.50;;
21036;SDS011;10677;50.942;4.028;2023-03-23T05:17:09;8.50;;;1.73;;
21036;SDS011;10677;50.942;4.028;2023-03-23T05:19:35;8.70;;;1.67;;
21036;SDS011;10677;50.942;4.028;2023-03-23T05:22:02;6.75;;;2.03;;
21036;SDS011;10677;50.942;4.028;2023-03-23T05:24:32;5.93;;;1.55;;
21036;SDS011;10677;50.942;4.028;2023-03-23T05:27:00;6.63;;;1.60;;
21036;SDS011;10677;50.942;4.028;2023-03-23T05:29:27;6.95;;;1.20;;
21036;SDS011;10677;50.942;4.028;2023-03-23T05:31:55;4.97;;;1.42;;
21036;SDS011;10677;50.942;4.028;2023-03-23T05:34:24;3.80;;;1.42;;
21036;SDS011;10677;50.942;4.028;2023-03-23T05:36:54;5.32;;;1.80;;
21036;SDS011;10677;50.942;4.028;2023-03-23T05:39:20;6.95;;;1.85;;
21036;SDS011;10677;50.942;4.028;2023-03-23T05:41:46;10.10;;;1.55;;
21036;SDS011;10677;50.942;4.028;2023-03-23T05:44:12;7.85;;;2.15;;
21036;SDS011;10677;50.942;4.028;2023-03-23T05:46:38;9.73;;;1.40;;
21036;SDS011;10677;50.942;4.028;2023-03-23T05:49:04;8.95;;;1.67;;
21036;SDS011;10677;50.942;4.028;2023-03-23T05:51:30;11.68;;;1.80;;
21036;SDS011;10677;50.942;4.028;2023-03-23T05:53:56;5.95;;;1.15;;
21036;SDS011;10677;50.942;4.028;2023-03-23T05:56:22;8.25;;;1.88;;
21036;SDS011;10677;50.942;4.028;2023-03-23T05:58:48;6.78;;;1.40;;
21036;SDS011;10677;50.942;4.028;2023-03-23T06:01:13;4.78;;;1.48;;
21036;SDS011;10677;50.942;4.028;2023-03-23T06:03:41;7.00;;;1.30;;
21036;SDS011;10677;50.942;4.028;2023-03-23T06:06:09;15.13;;;1.85;;
21036;SDS011;10677;50.942;4.028;2023-03-23T06:08:36;2.58;;;0.68;;
21036;SDS011;10677;50.942;4.028;2023-03-23T06:11:03;3.05;;;0.57;;
21036;SDS011;10677;50.942;4.028;2023-03-23T06:13:29;5.13;;;0.98;;
21036;SDS011;10677;50.942;4.028;2023-03-23T06:15:56;4.78;;;1.50;;
21036;SDS011;10677;50.942;4.028;2023-03-23T06:18:22;4.78;;;1.25;;
21036;SDS011;10677;50.942;4.028;2023-03-23T06:20:48;3.50;;;1.00;;
21036;SDS011;10677;50.942;4.028;2023-03-23T06:23:15;3.83;;;0.80;;
21036;SDS011;10677;50.942;4.028;2023-03-23T06:25:42;2.55;;;0.85;;
21036;SDS011;10677;50.942;4.028;2023-03-23T06:28:08;6.53;;;1.02;;
21036;SDS011;10677;50.942;4.028;2023-03-23T06:30:35;6.65;;;1.02;;
21036;SDS011;10677;50.942;4.028;2023-03-23T06:33:01;3.88;;;1.08;;
21036;SDS011;10677;50.942;4.028;2023-03-23T06:35:30;5.32;;;0.88;;
21036;SDS011;10677;50.942;4.028;2023-03-23T06:37:56;5.22;;;1.60;;
21036;SDS011;10677;50.942;4.028;2023-03-23T06:40:26;7.07;;;1.10;;
21036;SDS011;10677;50.942;4.028;2023-03-23T06:42:53;6.45;;;1.00;;
21036;SDS011;10677;50.942;4.028;2023-03-23T06:45:19;7.03;;;1.20;;
21036;SDS011;10677;50.942;4.028;2023-03-23T06:47:45;5.38;;;1.27;;
21036;SDS011;10677;50.942;4.028;2023-03-23T06:50:14;4.80;;;1.02;;
21036;SDS011;10677;50.942;4.028;2023-03-23T06:52:41;6.07;;;1.17;;
21036;SDS011;10677;50.942;4.028;2023-03-23T06:55:11;4.32;;;1.13;;
21036;SDS011;10677;50.942;4.028;2023-03-23T06:57:38;4.28;;;1.13;;
21036;SDS011;10677;50.942;4.028;2023-03-23T07:00:04;8.57;;;1.08;;
21036;SDS011;10677;50.942;4.028;2023-03-23T07:02:32;4.65;;;1.33;;
21036;SDS011;10677;50.942;4.028;2023-03-23T07:04:59;9.35;;;1.48;;
21036;SDS011;10677;50.942;4.028;2023-03-23T07:07:25;5.53;;;0.80;;
21036;SDS011;10677;50.942;4.028;2023-03-23T07:09:51;4.22;;;0.90;;
21036;SDS011;10677;50.942;4.028;2023-03-23T07:12:16;5.03;;;1.00;;
21036;SDS011;10677;50.942;4.028;2023-03-23T07:14:42;9.05;;;2.08;;
21036;SDS011;10677;50.942;4.028;2023-03-23T07:17:11;3.70;;;1.40;;
21036;SDS011;10677;50.942;4.028;2023-03-23T07:19:36;6.10;;;1.77;;
21036;SDS011;10677;50.942;4.028;2023-03-23T07:22:04;7.03;;;2.30;;
21036;SDS011;10677;50.942;4.028;2023-03-23T07:24:30;5.90;;;1.27;;
21036;SDS011;10677;50.942;4.028;2023-03-23T07:26:56;5.70;;;1.42;;
21036;SDS011;10677;50.942;4.028;2023-03-23T07:29:22;7.07;;;1.00;;
21036;SDS011;10677;50.942;4.028;2023-03-23T07:31:47;6.68;;;1.83;;
21036;SDS011;10677;50.942;4.028;2023-03-23T07:34:13;7.13;;;1.20;;
21036;SDS011;10677;50.942;4.028;2023-03-23T07:36:39;3.53;;;0.98;;
21036;SDS011;10677;50.942;4.028;2023-03-23T07:39:05;5.07;;;1.40;;
21036;SDS011;10677;50.942;4.028;2023-03-23T07:41:32;5.18;;;1.15;;
21036;SDS011;10677;50.942;4.028;2023-03-23T07:43:58;4.10;;;1.23;;
21036;SDS011;10677;50.942;4.028;2023-03-23T07:46:24;4.82;;;1.23;;
21036;SDS011;10677;50.942;4.028;2023-03-23T07:48:49;5.55;;;1.27;;
21036;SDS011;10677;50.942;4.028;2023-03-23T07:51:16;4.60;;;1.10;;
21036;SDS011;10677;50.942;4.028;2023-03-23T07:53:43;3.60;;;1.10;;
21036;SDS011;10677;50.942;4.028;2023-03-23T07:56:12;4.13;;;1.17;;
21036;SDS011;10677;50.942;4.028;2023-03-23T07:58:42;7.15;;;1.20;;
21036;SDS011;10677;50.942;4.028;2023-03-23T08:01:09;6.82;;;1.33;;
21036;SDS011;10677;50.942;4.028;2023-03-23T08:03:36;8.07;;;1.30;;
21036;SDS011;10677;50.942;4.028;2023-03-23T08:06:02;5.00;;;1.42;;
21036;SDS011;10677;50.942;4.028;2023-03-23T08:08:29;4.60;;;1.30;;
21036;SDS011;10677;50.942;4.028;2023-03-23T08:10:55;6.40;;;1.08;;
21036;SDS011;10677;50.942;4.028;2023-03-23T08:13:21;5.47;;;1.30;;
21036;SDS011;10677;50.942;4.028;2023-03-23T08:15:47;7.15;;;1.40;;
21036;SDS011;10677;50.942;4.028;2023-03-23T08:18:13;5.35;;;1.50;;
21036;SDS011;10677;50.942;4.028;2023-03-23T08:20:39;6.82;;;1.35;;
21036;SDS011;10677;50.942;4.028;2023-03-23T08:23:05;9.10;;;1.48;;
21036;SDS011;10677;50.942;4.028;2023-03-23T08:25:31;6.75;;;1.23;;
21036;SDS011;10677;50.942;4.028;2023-03-23T08:27:57;7.00;;;1.15;;
21036;SDS011;10677;50.942;4.028;2023-03-23T08:30:26;7.03;;;1.10;;
21036;SDS011;10677;50.942;4.028;2023-03-23T08:32:55;5.00;;;1.33;;
21036;SDS011;10677;50.942;4.028;2023-03-23T08:35:23;4.55;;;1.20;;
21036;SDS011;10677;50.942;4.028;2023-03-23T08:37:49;4.68;;;1.08;;
21036;SDS011;10677;50.942;4.028;2023-03-23T08:40:17;4.65;;;1.45;;
21036;SDS011;10677;50.942;4.028;2023-03-23T08:42:44;6.22;;;1.15;;
21036;SDS011;10677;50.942;4.028;2023-03-23T08:45:13;5.82;;;1.35;;
21036;SDS011;10677;50.942;4.028;2023-03-23T08:47:41;6.15;;;1.98;;
21036;SDS011;10677;50.942;4.028;2023-03-23T08:50:09;6.38;;;1.48;;
21036;SDS011;10677;50.942;4.028;2023-03-23T08:52:37;5.72;;;1.10;;
21036;SDS011;10677;50.942;4.028;2023-03-23T08:55:03;7.45;;;1.17;;
21036;SDS011;10677;50.942;4.028;2023-03-23T08:57:30;7.60;;;1.17;;
21036;SDS011;10677;50.942;4.028;2023-03-23T08:59:57;7.78;;;1.10;;
21036;SDS011;10677;50.942;4.028;2023-03-23T09:02:25;8.70;;;2.10;;
21036;SDS011;10677;50.942;4.028;2023-03-23T09:04:52;6.45;;;1.30;;
21036;SDS011;10677;50.942;4.028;2023-03-23T09:07:21;5.68;;;1.35;;
21036;SDS011;10677;50.942;4.028;2023-03-23T09:09:47;7.53;;;1.02;;
21036;SDS011;10677;50.942;4.028;2023-03-23T09:12:13;5.18;;;0.90;;
21036;SDS011;10677;50.942;4.028;2023-03-23T09:14:39;6.30;;;1.48;;
21036;SDS011;10677;50.942;4.028;2023-03-23T09:17:05;5.28;;;1.10;;
21036;SDS011;10677;50.942;4.028;2023-03-23T09:19:32;5.07;;;1.23;;
21036;SDS011;10677;50.942;4.028;2023-03-23T09:21:59;5.63;;;1.40;;
21036;SDS011;10677;50.942;4.028;2023-03-23T09:24:25;5.13;;;1.42;;
21036;SDS011;10677;50.942;4.028;2023-03-23T09:26:51;10.18;;;2.42;;
21036;SDS011;10677;50.942;4.028;2023-03-23T09:29:17;4.82;;;2.05;;
21036;SDS011;10677;50.942;4.028;2023-03-23T09:31:43;4.15;;;1.88;;
21036;SDS011;10677;50.942;4.028;2023-03-23T09:34:11;7.93;;;2.03;;
21036;SDS011;10677;50.942;4.028;2023-03-23T09:36:38;6.90;;;2.10;;
21036;SDS011;10677;50.942;4.028;2023-03-23T09:39:04;5.32;;;1.95;;
21036;SDS011;10677;50.942;4.028;2023-03-23T09:44:39;4.57;;;1.52;;
21036;SDS011;10677;50.942;4.028;2023-03-23T09:50:07;5.10;;;1.10;;
21036;SDS011;10677;50.942;4.028;2023-03-23T09:55:20;4.63;;;1.50;;
21036;SDS011;10677;50.942;4.028;2023-03-23T10:00:32;6.70;;;1.42;;
21036;SDS011;10677;50.942;4.028;2023-03-23T10:03:06;3.42;;;1.40;;
21036;SDS011;10677;50.942;4.028;2023-03-23T10:05:49;6.88;;;2.08;;
21036;SDS011;10677;50.942;4.028;2023-03-23T10:10:54;7.93;;;1.63;;
21036;SDS011;10677;50.942;4.028;2023-03-23T10:16:25;6.57;;;1.65;;
21036;SDS011;10677;50.942;4.028;2023-03-23T10:18:57;8.57;;;2.22;;
21036;SDS011;10677;50.942;4.028;2023-03-23T10:21:24;6.05;;;2.33;;
21036;SDS011;10677;50.942;4.028;2023-03-23T10:23:59;4.40;;;1.67;;
21036;SDS011;10677;50.942;4.028;2023-03-23T10:29:03;6.60;;;1.70;;
21036;SDS011;10677;50.942;4.028;2023-03-23T10:31:54;7.25;;;1.83;;
21036;SDS011;10677;50.942;4.028;2023-03-23T10:39:58;6.63;;;1.90;;
21036;SDS011;10677;50.942;4.028;2023-03-23T10:42:28;7.07;;;1.50;;
21036;SDS011;10677;50.942;4.028;2023-03-23T10:44:58;7.95;;;1.88;;
21036;SDS011;10677;50.942;4.028;2023-03-23T10:47:25;7.28;;;1.73;;
21036;SDS011;10677;50.942;4.028;2023-03-23T10:49:57;6.47;;;1.92;;
21036;SDS011;10677;50.942;4.028;2023-03-23T10:55:08;9.77;;;2.47;;
21036;SDS011;10677;50.942;4.028;2023-03-23T10:57:35;9.68;;;3.10;;
21036;SDS011;10677;50.942;4.028;2023-03-23T11:02:42;10.25;;;3.13;;
21036;SDS011;10677;50.942;4.028;2023-03-23T11:05:18;10.35;;;3.33;;
21036;SDS011;10677;50.942;4.028;2023-03-23T11:07:53;8.02;;;2.65;;
21036;SDS011;10677;50.942;4.028;2023-03-23T11:10:21;10.55;;;2.60;;
21036;SDS011;10677;50.942;4.028;2023-03-23T11:12:47;9.80;;;2.38;;
21036;SDS011;10677;50.942;4.028;2023-03-23T11:17:58;9.70;;;2.35;;
21036;SDS011;10677;50.942;4.028;2023-03-23T11:20:26;10.48;;;2.85;;
21036;SDS011;10677;50.942;4.028;2023-03-23T11:22:54;8.93;;;1.98;;
21036;SDS011;10677;50.942;4.028;2023-03-23T11:25:20;10.48;;;2.50;;
21036;SDS011;10677;50.942;4.028;2023-03-23T11:27:46;8.63;;;2.50;;
21036;SDS011;10677;50.942;4.028;2023-03-23T11:32:47;9.45;;;2.35;;
21036;SDS011;10677;50.942;4.028;2023-03-23T11:35:16;13.10;;;2.97;;
21036;SDS011;10677;50.942;4.028;2023-03-23T11:37:54;7.32;;;2.60;;
21036;SDS011;10677;50.942;4.028;2023-03-23T11:40:23;12.35;;;3.40;;
21036;SDS011;10677;50.942;4.028;2023-03-23T11:56:34;8.70;;;2.05;;
21036;SDS011;10677;50.942;4.028;2023-03-23T11:59:00;9.13;;;2.10;;
21036;SDS011;10677;50.942;4.028;2023-03-23T12:20:42;6.90;;;1.63;;
21036;SDS011;10677;50.942;4.028;2023-03-23T12:42:23;8.90;;;1.80;;
21036;SDS011;10677;50.942;4.028;2023-03-23T12:48:09;8.23;;;1.83;;
21036;SDS011;10677;50.942;4.028;2023-03-23T12:51:00;8.98;;;1.50;;
21036;SDS011;10677;50.942;4.028;2023-03-23T12:53:36;10.73;;;2.13;;
21036;SDS011;10677;50.942;4.028;2023-03-23T12:56:26;8.30;;;1.95;;
21036;SDS011;10677;50.942;4.028;2023-03-23T12:58:59;8.05;;;1.60;;
21036;SDS011;10677;50.942;4.028;2023-03-23T13:01:47;6.15;;;1.38;;
21036;SDS011;10677;50.942;4.028;2023-03-23T13:04:23;8.05;;;1.77;;
21036;SDS011;10677;50.942;4.028;2023-03-23T13:06:54;10.00;;;1.65;;
21036;SDS011;10677;50.942;4.028;2023-03-23T13:09:26;9.30;;;2.30;;
21036;SDS011;10677;50.942;4.028;2023-03-23T13:11:58;9.25;;;1.98;;
21036;SDS011;10677;50.942;4.028;2023-03-23T13:17:16;7.65;;;2.17;;
21036;SDS011;10677;50.942;4.028;2023-03-23T13:20:38;6.72;;;1.83;;
21036;SDS011;10677;50.942;4.028;2023-03-23T13:23:19;9.52;;;1.90;;
21036;SDS011;10677;50.942;4.028;2023-03-23T13:28:16;6.57;;;1.80;;
21036;SDS011;10677;50.942;4.028;2023-03-23T13:33:36;7.07;;;1.70;;
21036;SDS011;10677;50.942;4.028;2023-03-23T13:36:09;6.40;;;1.73;;
21036;SDS011;10677;50.942;4.028;2023-03-23T13:38:37;8.52;;;1.80;;
21036;SDS011;10677;50.942;4.028;2023-03-23T13:41:10;5.75;;;1.45;;
21036;SDS011;10677;50.942;4.028;2023-03-23T13:43:39;8.82;;;2.28;;
21036;SDS011;10677;50.942;4.028;2023-03-23T13:48:47;6.85;;;1.50;;
21036;SDS011;10677;50.942;4.028;2023-03-23T14:05:25;6.32;;;1.48;;
21036;SDS011;10677;50.942;4.028;2023-03-23T14:08:00;9.20;;;1.60;;
21036;SDS011;10677;50.942;4.028;2023-03-23T14:10:38;7.32;;;1.73;;
21036;SDS011;10677;50.942;4.028;2023-03-23T14:15:59;9.57;;;2.13;;
21036;SDS011;10677;50.942;4.028;2023-03-23T14:18:30;6.22;;;1.67;;
21036;SDS011;10677;50.942;4.028;2023-03-23T14:21:02;5.57;;;1.60;;
21036;SDS011;10677;50.942;4.028;2023-03-23T14:23:30;7.57;;;1.70;;
21036;SDS011;10677;50.942;4.028;2023-03-23T14:26:01;5.88;;;1.60;;
21036;SDS011;10677;50.942;4.028;2023-03-23T14:28:32;10.43;;;2.40;;
21036;SDS011;10677;50.942;4.028;2023-03-23T14:31:21;8.27;;;1.73;;
21036;SDS011;10677;50.942;4.028;2023-03-23T14:33:52;6.68;;;1.77;;
21036;SDS011;10677;50.942;4.028;2023-03-23T14:36:23;11.45;;;2.33;;
21036;SDS011;10677;50.942;4.028;2023-03-23T14:39:35;8.80;;;1.98;;
21036;SDS011;10677;50.942;4.028;2023-03-23T14:41:53;7.95;;;1.75;;
21036;SDS011;10677;50.942;4.028;2023-03-23T14:44:22;13.68;;;2.55;;
21036;SDS011;10677;50.942;4.028;2023-03-23T14:46:51;8.23;;;2.10;;
21036;SDS011;10677;50.942;4.028;2023-03-23T14:49:19;9.65;;;2.42;;
21036;SDS011;10677;50.942;4.028;2023-03-23T14:52:03;11.27;;;2.47;;
21036;SDS011;10677;50.942;4.028;2023-03-23T16:40:23;8.65;;;2.13;;
21036;SDS011;10677;50.942;4.028;2023-03-23T16:42:49;7.00;;;1.67;;
21036;SDS011;10677;50.942;4.028;2023-03-23T16:45:15;9.40;;;2.60;;
21036;SDS011;10677;50.942;4.028;2023-03-23T16:47:42;12.10;;;2.30;;
21036;SDS011;10677;50.942;4.028;2023-03-23T16:50:10;11.52;;;2.03;;
21036;SDS011;10677;50.942;4.028;2023-03-23T16:52:38;10.75;;;2.35;;
21036;SDS011;10677;50.942;4.028;2023-03-23T16:55:05;12.88;;;2.60;;
21036;SDS011;10677;50.942;4.028;2023-03-23T16:57:32;10.98;;;2.33;;
21036;SDS011;10677;50.942;4.028;2023-03-23T17:00:02;9.40;;;2.15;;
21036;SDS011;10677;50.942;4.028;2023-03-23T17:02:30;12.98;;;2.83;;
21036;SDS011;10677;50.942;4.028;2023-03-23T17:04:56;8.32;;;2.05;;
21036;SDS011;10677;50.942;4.028;2023-03-23T17:07:22;11.85;;;2.97;;
21036;SDS011;10677;50.942;4.028;2023-03-23T17:09:48;10.32;;;2.33;;
21036;SDS011;10677;50.942;4.028;2023-03-23T17:12:14;13.15;;;2.17;;
21036;SDS011;10677;50.942;4.028;2023-03-23T17:14:40;12.77;;;2.55;;
21036;SDS011;10677;50.942;4.028;2023-03-23T17:17:06;9.75;;;2.20;;
21036;SDS011;10677;50.942;4.028;2023-03-23T17:19:32;10.43;;;2.55;;
21036;SDS011;10677;50.942;4.028;2023-03-23T17:21:57;11.48;;;2.50;;
21036;SDS011;10677;50.942;4.028;2023-03-23T17:24:23;9.70;;;2.33;;
21036;SDS011;10677;50.942;4.028;2023-03-23T17:26:49;13.07;;;2.50;;
21036;SDS011;10677;50.942;4.028;2023-03-23T17:29:16;11.63;;;2.80;;
21036;SDS011;10677;50.942;4.028;2023-03-23T17:31:41;9.88;;;2.58;;
21036;SDS011;10677;50.942;4.028;2023-03-23T17:34:07;11.70;;;2.47;;
21036;SDS011;10677;50.942;4.028;2023-03-23T17:36:33;14.77;;;3.17;;
21036;SDS011;10677;50.942;4.028;2023-03-23T17:38:59;9.07;;;2.60;;
21036;SDS011;10677;50.942;4.028;2023-03-23T17:41:25;10.13;;;3.03;;
21036;SDS011;10677;50.942;4.028;2023-03-23T17:43:50;11.15;;;3.10;;
21036;SDS011;10677;50.942;4.028;2023-03-23T17:46:16;12.20;;;2.65;;
21036;SDS011;10677;50.942;4.028;2023-03-23T17:48:42;16.48;;;3.13;;
21036;SDS011;10677;50.942;4.028;2023-03-23T17:51:08;11.30;;;2.95;;
21036;SDS011;10677;50.942;4.028;2023-03-23T17:53:34;13.18;;;3.45;;
21036;SDS011;10677;50.942;4.028;2023-03-23T17:56:00;8.02;;;2.58;;
21036;SDS011;10677;50.942;4.028;2023-03-23T17:58:26;14.40;;;3.22;;
21036;SDS011;10677;50.942;4.028;2023-03-23T18:00:55;11.77;;;3.10;;
21036;SDS011;10677;50.942;4.028;2023-03-23T18:03:21;14.57;;;2.97;;
21036;SDS011;10677;50.942;4.028;2023-03-23T18:05:48;13.85;;;3.28;;
21036;SDS011;10677;50.942;4.028;2023-03-23T18:08:16;11.45;;;3.50;;
21036;SDS011;10677;50.942;4.028;2023-03-23T18:10:42;12.18;;;3.63;;
21036;SDS011;10677;50.942;4.028;2023-03-23T18:13:08;12.23;;;3.47;;
21036;SDS011;10677;50.942;4.028;2023-03-23T18:15:35;11.75;;;3.10;;
21036;SDS011;10677;50.942;4.028;2023-03-23T18:18:01;13.32;;;3.38;;
21036;SDS011;10677;50.942;4.028;2023-03-23T18:20:29;11.50;;;3.15;;
21036;SDS011;10677;50.942;4.028;2023-03-23T18:22:56;12.35;;;3.70;;
21036;SDS011;10677;50.942;4.028;2023-03-23T18:25:22;12.98;;;3.13;;
21036;SDS011;10677;50.942;4.028;2023-03-23T18:27:48;12.15;;;3.22;;
21036;SDS011;10677;50.942;4.028;2023-03-23T18:30:13;12.68;;;3.25;;
21036;SDS011;10677;50.942;4.028;2023-03-23T18:32:40;12.70;;;3.22;;
21036;SDS011;10677;50.942;4.028;2023-03-23T18:35:06;13.30;;;3.40;;
21036;SDS011;10677;50.942;4.028;2023-03-23T18:37:34;12.18;;;3.03;;
21036;SDS011;10677;50.942;4.028;2023-03-23T18:40:03;13.82;;;3.25;;
21036;SDS011;10677;50.942;4.028;2023-03-23T18:42:30;15.45;;;3.67;;
21036;SDS011;10677;50.942;4.028;2023-03-23T18:44:55;15.98;;;3.65;;
21036;SDS011;10677;50.942;4.028;2023-03-23T18:47:23;9.98;;;2.78;;
21036;SDS011;10677;50.942;4.028;2023-03-23T18:49:49;14.05;;;3.17;;
21036;SDS011;10677;50.942;4.028;2023-03-23T18:52:19;13.38;;;3.15;;
21036;SDS011;10677;50.942;4.028;2023-03-23T18:54:50;10.35;;;3.13;;